KINK

Details ICAO KINK (INK)
Name WINKLER CO
Region United States
Timezone America/Chicago (UTC-6.0)
Plans Departing 1
Arriving 2
Stats Elevation 2,822 ft / 860 m (AMSL)
Location 31.780238° -103.201498°
Runways 2
Magnetic Variation 6.720° E
Sunrise 2017-12-16 13:47:33 UTC / 2017-12-16 07:47:33 Local
Sunset 2017-12-16 23:52:22 UTC / 2017-12-16 17:52:22 Local
Advertisement - Login to hide

Runways

ID Width Length Bearing (true) Bearing (mag) Surface Threshold Offset Overrun Length
04 100 ft / 30 m 3,514 ft / 1,071 m 50.34° 43.62° Asphalt 0 ft / 0 m 3,100 ft / 945 m
13 100 ft / 30 m 5,006 ft / 1,526 m 140.59° 133.87° Asphalt 0 ft / 0 m 0 ft / 0 m
22 100 ft / 30 m 3,514 ft / 1,071 m 230.34° 223.62° Asphalt 0 ft / 0 m 0 ft / 0 m
31 100 ft / 30 m 5,006 ft / 1,526 m 320.60° 313.88° Asphalt 0 ft / 0 m 0 ft / 0 m

Map

Weather


0- 5 10 15 20 25 30 35+ Temperature / ° C

Clouds and Precipitation
Forecast for 2017-12-17 06:00 UTC. Updated an hour ago

Ground ~20,000 ft ~40,000 ft Winds

METAR

Not found

TAF

TAF KINK 170520Z 1706/1806 16010KT P6SM BKN150 AMD NOT SKED

Frequencies

Recorded 118.32 MHz ASOS
Unicom 123.00 MHz CTAF/UNICOM
Warning: Do not use this data for real-world aviation or navigation. No guarantee of current accuracy is given.